Valdosta Regional Airport

Airport
ICAO code: 
KVLD
Summary
ICAO Region: 
NAM
Territory: 
Location: 
Valdosta, Georgia,
Coordinates: 
Aerial View: 
30° 46' 54.226" N, 83° 16' 35.813" W
Metar
Observation
KVLD 040653Z 00000KT 1/4SM FG VV002 10/09 A3011 RMK AO2 SLP204 T01000094 $
Station
Valdosta, Valdosta Regional Airport
Date/Time
2021-12-04 06:53:00
Wind direction
Wind speed
00 kts
Lowest cloud amount
n/a
Temperature
10°C
Dew point
9.4°C
Humidity
96%
Weather condition
fog

Description

Valdosta Regional Airport is a public-use airport located 6 km south of the central business district of Valdosta, a city in Lowndes County, Georgia.

Climatology

Humid “subtropical” climate (Köppen climate classification Cfa) - characterized by hot, humid summers and cool winters. Significant amounts of precipitation occur in all seasons in most areas.

Runways

Designator Length Width Surface Rops
13/31 1108 23 ASP Yes/Yes
4/22 1706 30 ASP Yes/Yes
17/35 1921 46 ASP Yes/Yes
Airport map: 
Aerial View: 

SKYbrary Partners:

Safety knowledge contributed by: